Time;durP1;ratioP1;P1;durP2;ratioP2;P2;SDS_P1;SDS_P2;PMS_P1;PMS_P2;Temp;Humidity;BMP_temperature;BMP_pressure;BME280_temperature;BME280_humidity;BME280_pressure;Samples;Min_cycle;Max_cycle;Signal;HPM_P1;HPM_P2
2021/11/18 00:00:26;;;;;;;60.35;35.05;;;;;;;2.80;100.00;93672.78;5068355;28;20044;-78
2021/11/18 00:02:54;;;;;;;53.58;31.35;;;;;;;2.86;100.00;93674.72;5068390;28;20052;-78
2021/11/18 00:05:23;;;;;;;53.83;31.65;;;;;;;2.77;100.00;93663.75;5068056;28;20094;-78
2021/11/18 00:07:52;;;;;;;51.95;31.52;;;;;;;2.94;100.00;93672.25;5068406;28;20079;-78
2021/11/18 00:10:22;;;;;;;55.35;31.60;;;;;;;2.99;100.00;93676.84;5068131;28;20553;-78
2021/11/18 00:12:50;;;;;;;55.90;30.55;;;;;;;3.10;100.00;93672.47;5067918;28;20503;-78
2021/11/18 00:15:17;;;;;;;54.30;31.73;;;;;;;3.17;100.00;93674.25;5068093;28;20094;-78
2021/11/18 00:17:44;;;;;;;51.95;31.65;;;;;;;3.23;100.00;93670.28;5067902;28;20534;-78
2021/11/18 00:20:14;;;;;;;52.55;31.05;;;;;;;3.29;100.00;93677.28;5067702;28;20567;-78
2021/11/18 00:22:41;;;;;;;56.08;32.25;;;;;;;3.26;100.00;93662.38;5068222;28;20094;-78
2021/11/18 00:25:08;;;;;;;55.08;32.80;;;;;;;3.47;100.00;93682.28;5068360;28;20057;-78
2021/11/18 00:27:37;;;;;;;52.97;32.42;;;;;;;3.53;100.00;93687.69;5067920;28;20053;-79
2021/11/18 00:30:06;;;;;;;59.55;33.05;;;;;;;3.54;100.00;93687.56;5067975;28;20071;-78
2021/11/18 00:32:33;;;;;;;60.20;32.78;;;;;;;3.54;100.00;93684.19;5067440;28;20060;-78
2021/11/18 00:34:59;;;;;;;60.97;36.13;;;;;;;3.55;100.00;93685.78;5067861;28;21244;-78
2021/11/18 00:37:26;;;;;;;60.58;35.85;;;;;;;3.31;100.00;93656.84;5067449;28;20051;-78
2021/11/18 00:39:53;;;;;;;58.25;35.83;;;;;;;3.40;100.00;93681.31;5067522;28;20503;-78
2021/11/18 00:42:20;;;;;;;69.70;37.63;;;;;;;3.48;100.00;93672.94;5067880;28;20044;-78
2021/11/18 00:44:48;;;;;;;71.07;37.35;;;;;;;3.25;100.00;93649.84;5066925;28;20491;-78
2021/11/18 00:47:15;;;;;;;70.57;36.47;;;;;;;3.31;100.00;93680.50;5067100;28;20048;-78
2021/11/18 00:49:42;;;;;;;68.50;37.17;;;;;;;3.21;100.00;93672.19;5067978;28;20090;-78
2021/11/18 00:52:09;;;;;;;65.97;35.45;;;;;;;3.14;100.00;93672.00;5067534;28;20059;-78
2021/11/18 00:54:35;;;;;;;68.40;36.33;;;;;;;3.11;100.00;93679.13;5067757;28;20055;-78
2021/11/18 00:57:02;;;;;;;63.17;36.25;;;;;;;3.05;100.00;93666.09;5067283;28;20106;-79
2021/11/18 00:59:30;;;;;;;72.82;37.60;;;;;;;3.04;100.00;93667.06;5067519;28;20044;-79
2021/11/18 01:01:58;;;;;;;64.00;35.63;;;;;;;3.03;100.00;93659.59;5067482;28;21114;-78
2021/11/18 01:04:27;;;;;;;62.55;34.78;;;;;;;3.12;100.00;93681.53;5067134;28;20056;-78
2021/11/18 01:06:54;;;;;;;63.88;33.67;;;;;;;3.02;100.00;93679.06;5066628;28;20067;-79
2021/11/18 01:09:21;;;;;;;65.00;37.13;;;;;;;3.05;100.00;93690.66;5066400;28;20087;-79
2021/11/18 01:11:48;;;;;;;61.70;35.55;;;;;;;3.01;100.00;93686.88;5067402;28;20052;-79
2021/11/18 01:14:17;;;;;;;63.30;36.92;;;;;;;2.99;100.00;93692.09;5066685;28;20511;-79
2021/11/18 01:16:46;;;;;;;60.42;35.17;;;;;;;2.85;100.00;93674.88;5066877;28;20056;-80
2021/11/18 01:19:15;;;;;;;63.42;35.95;;;;;;;2.92;100.00;93684.28;5066701;28;20106;-79
2021/11/18 01:21:44;;;;;;;62.38;36.00;;;;;;;2.83;100.00;93686.91;5067042;28;20037;-80
2021/11/18 01:24:11;;;;;;;61.38;35.85;;;;;;;2.77;100.00;93690.84;5066776;28;20044;-79
2021/11/18 01:26:38;;;;;;;68.63;39.13;;;;;;;2.61;100.00;93686.47;5067223;28;20118;-79
2021/11/18 01:29:06;;;;;;;61.72;36.92;;;;;;;2.61;100.00;93691.53;5066840;28;20044;-79
2021/11/18 01:31:33;;;;;;;75.28;41.85;;;;;;;2.51;100.00;93689.88;5066835;28;20048;-78
2021/11/18 01:34:01;;;;;;;80.68;41.72;;;;;;;2.50;100.00;93688.28;5066294;28;20048;-78
2021/11/18 01:36:29;;;;;;;70.32;38.30;;;;;;;2.45;100.00;93677.03;5066617;28;20067;-78
2021/11/18 01:38:56;;;;;;;70.30;38.75;;;;;;;2.48;100.00;93685.13;5066631;28;20044;-78
2021/11/18 01:41:25;;;;;;;69.45;38.15;;;;;;;2.47;100.00;93690.34;5066692;28;20040;-78
2021/11/18 01:43:55;;;;;;;72.95;37.97;;;;;;;2.24;100.00;93651.06;5066314;28;20531;-78
2021/11/18 01:46:24;;;;;;;67.88;35.60;;;;;;;2.46;100.00;93683.69;5066756;28;20121;-78
2021/11/18 01:48:52;;;;;;;67.30;38.30;;;;;;;2.49;100.00;93696.03;5066657;28;20053;-78
2021/11/18 01:51:24;;;;;;;61.70;36.65;;;;;;;2.22;100.00;93647.06;5066257;28;20041;-78
2021/11/18 01:53:53;;;;;;;61.97;34.42;;;;;;;2.52;100.00;93690.69;5066943;28;20045;-78
2021/11/18 01:56:22;;;;;;;58.53;32.13;;;;;;;2.53;100.00;93690.56;5068918;28;20056;-78
2021/11/18 01:58:52;;;;;;;55.53;32.75;;;;;;;2.55;100.00;93690.41;5069917;28;20064;-78
2021/11/18 02:01:20;;;;;;;56.40;30.48;;;;;;;2.46;100.00;93671.00;5070630;28;20134;-77
2021/11/18 02:03:47;;;;;;;51.50;30.38;;;;;;;2.62;100.00;93693.13;5070175;28;20049;-78
2021/11/18 02:06:17;;;;;;;48.60;29.23;;;;;;;2.66;100.00;93679.22;5069971;28;20048;-79
2021/11/18 02:08:44;;;;;;;52.90;30.00;;;;;;;2.70;100.00;93672.09;5070306;28;20052;-78
2021/11/18 02:11:23;;;;;;;52.17;30.13;;;;;;;2.58;100.00;93654.59;5069964;28;20557;-79
2021/11/18 02:13:50;;;;;;;45.78;27.88;;;;;;;2.70;100.00;93675.44;5070243;28;20060;-80
2021/11/18 02:16:17;;;;;;;52.13;29.65;;;;;;;2.66;100.00;93669.88;5070302;28;20051;-79
2021/11/18 02:18:44;;;;;;;50.05;30.05;;;;;;;2.63;100.00;93670.16;5070162;28;20052;-79
2021/11/18 02:21:14;;;;;;;49.28;28.45;;;;;;;2.66;100.00;93672.41;5070282;28;20479;-80
2021/11/18 02:23:44;;;;;;;62.97;34.08;;;;;;;2.61;100.00;93674.59;5069881;28;20059;-80
2021/11/18 02:26:11;;;;;;;70.22;37.72;;;;;;;2.30;100.00;93638.72;5069752;28;20052;-79
2021/11/18 02:28:41;;;;;;;60.53;35.42;;;;;;;2.44;100.00;93671.13;5069941;28;20048;-79
2021/11/18 02:31:16;;;;;;;63.15;36.70;;;;;;;2.43;100.00;93679.69;5069828;28;20049;-79
2021/11/18 02:33:43;;;;;;;60.67;35.00;;;;;;;2.33;100.00;93654.44;5069695;28;20044;-80
2021/11/18 02:36:10;;;;;;;62.67;36.15;;;;;;;2.57;100.00;93682.63;5069777;28;20056;-79
2021/11/18 02:38:38;;;;;;;60.13;34.60;;;;;;;2.66;100.00;93685.09;5069962;28;20045;-79
2021/11/18 02:41:06;;;;;;;57.70;34.78;;;;;;;2.75;100.00;93680.06;5069745;28;20044;-79
2021/11/18 02:43:33;;;;;;;54.40;32.85;;;;;;;2.80;100.00;93678.66;5069661;28;20049;-79
2021/11/18 02:46:00;;;;;;;56.85;31.48;;;;;;;2.87;100.00;93680.59;5069411;28;20564;-81
2021/11/18 02:48:28;;;;;;;58.60;33.20;;;;;;;2.84;100.00;93671.56;5069434;28;20055;-80
2021/11/18 02:50:57;;;;;;;57.28;34.00;;;;;;;2.84;100.00;93675.81;5069395;28;20491;-78
2021/11/18 02:53:24;;;;;;;62.85;34.55;;;;;;;2.91;100.00;93690.28;5069945;28;20128;-79
2021/11/18 02:55:54;;;;;;;55.50;32.60;;;;;;;2.92;100.00;93691.88;5069209;28;20504;-79
2021/11/18 02:58:22;;;;;;;59.13;34.50;;;;;;;2.86;100.00;93681.56;5069295;28;20053;-79
2021/11/18 03:00:54;;;;;;;53.83;32.83;;;;;;;2.44;100.00;93633.09;5069342;28;20412;-79
2021/11/18 03:03:21;;;;;;;61.78;35.92;;;;;;;2.65;100.00;93678.41;5069633;28;20049;-78
2021/11/18 03:05:49;;;;;;;56.92;33.55;;;;;;;2.34;100.00;93662.81;5069202;28;20488;-78
2021/11/18 03:08:16;;;;;;;53.78;31.30;;;;;;;2.56;100.00;93698.78;5069338;28;20053;-79
2021/11/18 03:10:43;;;;;;;60.85;34.05;;;;;;;2.62;100.00;93698.19;5069456;28;20044;-78
2021/11/18 03:13:12;;;;;;;64.78;34.45;;;;;;;2.49;100.00;93693.50;5069163;28;20041;-79
2021/11/18 03:15:38;;;;;;;61.78;35.35;;;;;;;2.51;100.00;93700.03;5069562;28;20044;-79
2021/11/18 03:18:06;;;;;;;56.20;32.35;;;;;;;2.48;100.00;93695.25;5069203;28;20064;-79
2021/11/18 03:20:33;;;;;;;62.55;34.30;;;;;;;2.42;100.00;93697.59;5069286;28;20071;-78
2021/11/18 03:23:00;;;;;;;67.65;37.67;;;;;;;2.28;100.00;93679.44;5069313;28;20431;-78
2021/11/18 03:25:30;;;;;;;76.03;38.83;;;;;;;2.45;100.00;93709.97;5069464;28;20049;-79
2021/11/18 03:27:58;;;;;;;80.93;43.83;;;;;;;2.22;100.00;93703.63;5069236;28;20091;-79
2021/11/18 03:30:32;;;;;;;88.15;46.47;;;;;;;1.76;100.00;93703.66;5069140;28;20404;-80
2021/11/18 03:33:01;;;;;;;101.15;48.53;;;;;;;1.60;100.00;93691.66;5068966;28;20049;-79
2021/11/18 03:35:28;;;;;;;94.13;48.10;;;;;;;1.68;100.00;93694.28;5068917;28;20044;-79
2021/11/18 03:37:56;;;;;;;91.90;48.92;;;;;;;1.63;100.00;93698.97;5068699;28;20044;-79
2021/11/18 03:40:25;;;;;;;96.45;50.67;;;;;;;1.60;100.00;93707.66;5068975;28;20055;-79
2021/11/18 03:42:53;;;;;;;101.00;54.53;;;;;;;1.43;100.00;93688.94;5069020;28;20052;-79
2021/11/18 03:45:21;;;;;;;100.72;50.15;;;;;;;1.47;100.00;93689.44;5069270;28;20056;-79
2021/11/18 03:47:49;;;;;;;95.60;51.33;;;;;;;1.64;100.00;93692.16;5068809;28;20492;-79
2021/11/18 03:50:16;;;;;;;93.47;51.00;;;;;;;1.80;100.00;93710.03;5069416;28;20045;-79
2021/11/18 03:52:43;;;;;;;99.10;54.97;;;;;;;1.94;100.00;93713.03;5068833;28;20495;-78
2021/11/18 03:55:13;;;;;;;99.30;53.53;;;;;;;1.92;100.00;93702.25;5068810;28;20488;-78
2021/11/18 03:57:40;;;;;;;90.20;49.42;;;;;;;2.14;100.00;93714.47;5068995;28;20117;-77
2021/11/18 04:00:09;;;;;;;87.47;47.63;;;;;;;2.29;100.00;93713.16;5068773;28;20045;-78
2021/11/18 04:02:36;;;;;;;87.57;46.63;;;;;;;2.24;100.00;93696.69;5069147;28;20056;-78
2021/11/18 04:05:05;;;;;;;79.38;42.88;;;;;;;2.26;100.00;93673.69;5054907;28;20045;-78
2021/11/18 04:07:38;;;;;;;85.18;43.63;;;;;;;2.58;100.00;93710.38;5047268;28;20115;-78
2021/11/18 04:10:07;;;;;;;73.40;39.30;;;;;;;2.69;100.00;93709.38;5048227;28;20140;-78
2021/11/18 04:12:33;;;;;;;70.32;37.80;;;;;;;2.75;100.00;93707.97;5048341;28;20053;-78
2021/11/18 04:15:00;;;;;;;70.85;38.70;;;;;;;2.84;100.00;93701.19;5048618;28;20095;-78
2021/11/18 04:17:27;;;;;;;69.93;39.03;;;;;;;2.91;100.00;93697.91;5048443;28;20103;-78
2021/11/18 04:19:54;;;;;;;70.15;36.67;;;;;;;2.97;100.00;93694.00;5048547;28;20052;-78
2021/11/18 04:22:22;;;;;;;61.92;35.72;;;;;;;2.86;100.00;93679.81;5052411;28;20049;-78
2021/11/18 04:24:49;;;;;;;65.25;32.85;;;;;;;3.00;100.00;93692.88;5052477;28;20307;-79
2021/11/18 04:27:17;;;;;;;56.97;32.92;;;;;;;3.07;100.00;93691.34;5052314;28;20045;-79
2021/11/18 04:29:44;;;;;;;58.50;33.03;;;;;;;3.01;100.00;93691.94;5052253;28;20057;-78
2021/11/18 04:32:16;;;;;;;67.75;34.78;;;;;;;3.01;100.00;93697.78;5051967;28;20405;-78
2021/11/18 04:34:43;;;;;;;69.60;38.25;;;;;;;3.01;100.00;93697.78;5052266;28;20049;-78
2021/11/18 04:37:11;;;;;;;64.47;36.88;;;;;;;3.01;100.00;93692.72;5051987;28;20045;-78
2021/11/18 04:39:40;;;;;;;60.97;35.33;;;;;;;3.05;100.00;93688.13;5052098;28;20041;-78
2021/11/18 04:42:08;;;;;;;61.58;33.47;;;;;;;3.04;100.00;93694.97;5051762;28;20381;-78
2021/11/18 04:44:36;;;;;;;68.47;35.90;;;;;;;2.97;100.00;93699.06;5051723;28;20060;-78
2021/11/18 04:47:04;;;;;;;65.38;35.97;;;;;;;2.78;100.00;93667.84;5051969;28;20057;-79
2021/11/18 04:49:31;;;;;;;65.43;36.75;;;;;;;3.00;100.00;93688.59;5051951;28;20079;-78
2021/11/18 04:51:58;;;;;;;64.07;35.08;;;;;;;3.06;100.00;93685.44;5051593;28;20051;-78
2021/11/18 04:54:25;;;;;;;64.18;33.85;;;;;;;3.11;100.00;93692.63;5051906;28;20053;-78
2021/11/18 04:56:53;;;;;;;69.93;35.85;;;;;;;3.03;100.00;93693.38;5051401;28;20049;-78
2021/11/18 04:59:20;;;;;;;68.60;35.63;;;;;;;2.95;100.00;93693.31;5051656;28;20063;-78
2021/11/18 05:01:47;;;;;;;60.10;33.67;;;;;;;3.00;100.00;93691.13;5051664;28;20052;-78
2021/11/18 05:04:14;;;;;;;61.78;35.97;;;;;;;2.71;100.00;93692.25;5051612;28;20045;-78
2021/11/18 05:06:41;;;;;;;65.45;36.28;;;;;;;2.96;100.00;93694.13;5051554;28;21284;-77
2021/11/18 05:09:09;;;;;;;74.88;39.60;;;;;;;2.64;100.00;93699.66;5051638;28;20053;-78
2021/11/18 05:11:37;;;;;;;70.28;38.25;;;;;;;2.47;100.00;93686.06;5051775;28;20049;-77
2021/11/18 05:14:06;;;;;;;73.15;39.67;;;;;;;2.42;100.00;93690.78;5051296;28;20056;-78
2021/11/18 05:16:33;;;;;;;81.95;41.53;;;;;;;2.36;100.00;93707.38;5051102;28;20060;-78
2021/11/18 05:19:01;;;;;;;92.80;47.03;;;;;;;2.48;100.00;93712.22;5051170;28;20061;-78
2021/11/18 05:21:29;;;;;;;84.95;45.90;;;;;;;2.56;100.00;93706.41;5051352;28;20049;-78
2021/11/18 05:23:58;;;;;;;78.88;41.88;;;;;;;2.67;100.00;93706.16;5051201;28;20041;-78
2021/11/18 05:26:25;;;;;;;78.75;39.92;;;;;;;2.84;100.00;93712.16;5051505;28;20049;-78
2021/11/18 05:28:53;;;;;;;83.43;42.17;;;;;;;2.96;100.00;93722.81;5051040;28;20048;-78
2021/11/18 05:31:23;;;;;;;88.20;44.10;;;;;;;2.96;100.00;93716.97;5050576;28;20493;-78
2021/11/18 05:33:51;;;;;;;74.95;42.05;;;;;;;2.74;100.00;93721.59;5050727;28;20394;-78
2021/11/18 05:36:19;;;;;;;73.88;39.95;;;;;;;2.62;100.00;93718.50;5051134;28;20079;-78
2021/11/18 05:38:47;;;;;;;77.00;43.50;;;;;;;2.63;100.00;93735.28;5050745;28;20064;-78
2021/11/18 05:41:15;;;;;;;76.07;40.80;;;;;;;2.68;100.00;93733.13;5050579;28;20044;-78
2021/11/18 05:43:42;;;;;;;82.22;41.58;;;;;;;2.56;100.00;93729.22;5050788;28;20057;-78
2021/11/18 05:46:09;;;;;;;85.25;46.88;;;;;;;2.62;100.00;93731.19;5050862;28;20436;-77
2021/11/18 05:48:38;;;;;;;79.28;44.25;;;;;;;2.84;100.00;93734.19;5050589;28;20099;-78
2021/11/18 05:51:07;;;;;;;84.20;44.50;;;;;;;2.97;100.00;93731.25;5050998;28;20049;-78
2021/11/18 05:53:36;;;;;;;76.85;41.45;;;;;;;3.06;100.00;93715.13;5050660;28;20045;-77
2021/11/18 05:56:06;;;;;;;79.88;43.33;;;;;;;3.29;100.00;93737.44;5050503;28;20187;-78
2021/11/18 05:58:34;;;;;;;81.90;43.65;;;;;;;3.27;100.00;93732.53;5048573;28;20045;-78
2021/11/18 06:01:01;;;;;;;83.53;44.47;;;;;;;3.28;100.00;93716.34;5048653;28;20053;-78
2021/11/18 06:03:28;;;;;;;85.57;46.25;;;;;;;3.57;100.00;93750.72;5049242;28;20049;-78
2021/11/18 06:05:56;;;;;;;87.90;45.60;;;;;;;3.56;100.00;93744.06;5050430;28;20041;-78
2021/11/18 06:08:23;;;;;;;83.00;46.08;;;;;;;3.61;100.00;93746.13;5050513;28;20053;-78
2021/11/18 06:10:51;;;;;;;86.63;44.65;;;;;;;3.76;100.00;93756.53;5050530;28;20059;-79
2021/11/18 06:13:17;;;;;;;84.07;43.85;;;;;;;3.77;100.00;93762.41;5050189;28;20140;-78
2021/11/18 06:15:44;;;;;;;80.47;42.15;;;;;;;3.64;100.00;93755.19;5050198;28;20045;-78
2021/11/18 06:18:12;;;;;;;83.43;42.40;;;;;;;3.77;100.00;93759.84;5049736;28;20061;-79
2021/11/18 06:20:39;;;;;;;75.80;39.20;;;;;;;3.91;100.00;93771.97;5049959;28;20049;-78
2021/11/18 06:23:09;;;;;;;73.18;40.85;;;;;;;3.85;100.00;93754.81;5049952;28;20404;-78
2021/11/18 06:25:37;;;;;;;85.05;42.05;;;;;;;4.07;100.00;93772.97;5050292;28;20408;-78
2021/11/18 06:28:05;;;;;;;77.70;40.92;;;;;;;4.11;100.00;93769.97;5049732;28;20242;-78
2021/11/18 06:30:38;;;;;;;80.15;40.80;;;;;;;4.18;100.00;93775.22;5049469;28;20519;-78
2021/11/18 06:33:05;;;;;;;73.05;36.70;;;;;;;4.22;100.00;93780.78;5049725;28;20051;-78
2021/11/18 06:35:32;;;;;;;72.25;39.17;;;;;;;4.24;100.00;93777.16;5049609;28;20053;-78
2021/11/18 06:37:59;;;;;;;69.53;38.17;;;;;;;3.90;100.00;93783.09;5049724;28;20052;-78
2021/11/18 06:40:27;;;;;;;64.38;36.88;;;;;;;3.63;100.00;93789.19;5050080;28;20045;-78
2021/11/18 06:42:55;;;;;;;73.65;39.50;;;;;;;3.45;100.00;93751.97;5049622;28;20049;-78
2021/11/18 06:45:25;;;;;;;69.00;38.33;;;;;;;3.78;100.00;93780.03;5049986;28;20404;-77
2021/11/18 06:47:52;;;;;;;129.52;58.70;;;;;;;3.85;100.00;93787.84;5049412;28;20053;-78
2021/11/18 06:50:19;;;;;;;94.82;43.92;;;;;;;3.90;100.00;93782.28;5049670;28;20056;-78
2021/11/18 06:52:46;;;;;;;67.43;37.85;;;;;;;3.68;100.00;93781.91;4998305;28;20089;-77
2021/11/18 06:55:15;;;;;;;70.28;38.75;;;;;;;3.48;100.00;93752.44;5058545;28;20049;-78
2021/11/18 06:57:46;;;;;;;105.72;53.05;;;;;;;3.83;100.00;93788.00;5049539;28;20056;-78
2021/11/18 07:00:14;;;;;;;80.78;41.08;;;;;;;3.79;100.00;93768.13;5049308;28;20040;-78
2021/11/18 07:02:41;;;;;;;77.25;41.30;;;;;;;3.96;100.00;93789.31;5049657;28;20041;-78
2021/11/18 07:05:08;;;;;;;72.78;39.38;;;;;;;4.09;100.00;93796.50;5049373;28;20501;-78
2021/11/18 07:07:35;;;;;;;59.67;34.50;;;;;;;3.82;100.00;93803.41;5049428;28;20044;-78
2021/11/18 07:10:05;;;;;;;66.07;35.53;;;;;;;3.72;100.00;93793.34;5049393;28;20057;-78
2021/11/18 07:12:31;;;;;;;71.22;37.65;;;;;;;3.83;100.00;93793.09;5049326;28;20053;-78
2021/11/18 07:15:00;;;;;;;59.17;33.05;;;;;;;3.86;100.00;93791.97;5049479;28;20048;-78
2021/11/18 07:17:27;;;;;;;57.40;32.78;;;;;;;3.96;100.00;93790.09;5049634;28;20130;-77
2021/11/18 07:19:54;;;;;;;59.92;34.20;;;;;;;4.14;100.00;93797.63;5049012;28;20056;-78
2021/11/18 07:22:21;;;;;;;65.13;35.75;;;;;;;4.24;100.00;93791.59;5049046;28;20048;-78
2021/11/18 07:24:48;;;;;;;56.08;30.98;;;;;;;4.10;100.00;93776.00;5049172;28;20412;-78
2021/11/18 07:27:15;;;;;;;56.13;31.85;;;;;;;4.36;100.00;93794.66;5049010;28;20053;-78
2021/11/18 07:29:42;;;;;;;61.40;33.35;;;;;;;4.48;100.00;93797.66;5049093;28;20501;-78
2021/11/18 07:32:10;;;;;;;60.90;31.77;;;;;;;4.50;100.00;93775.44;5048963;28;20489;-78
2021/11/18 07:34:37;;;;;;;60.17;32.10;;;;;;;4.75;100.00;93811.88;5049094;28;20509;-78
2021/11/18 07:37:04;;;;;;;59.13;33.35;;;;;;;4.79;100.00;93802.16;5049431;28;20045;-78
2021/11/18 07:39:31;;;;;;;62.72;33.50;;;;;;;4.94;100.00;93810.75;5049306;28;20115;-78
2021/11/18 07:41:57;;;;;;;68.75;37.88;;;;;;;4.80;100.00;93812.19;5049018;28;20496;-78
2021/11/18 07:44:24;;;;;;;65.22;34.03;;;;;;;5.01;100.00;93817.75;5048998;28;20550;-78
2021/11/18 07:46:51;;;;;;;58.08;30.80;;;;;;;4.61;100.00;93815.84;5048834;28;20052;-78
2021/11/18 07:49:19;;;;;;;60.72;32.50;;;;;;;4.37;100.00;93811.50;5049283;28;20052;-78
2021/11/18 07:51:46;;;;;;;55.58;31.60;;;;;;;4.36;100.00;93810.69;5049215;28;20103;-78
2021/11/18 07:54:15;;;;;;;73.20;41.20;;;;;;;4.40;100.00;93799.25;5049111;28;20049;-78
2021/11/18 07:56:42;;;;;;;53.42;30.83;;;;;;;4.36;100.00;93785.25;5052143;28;20493;-78
2021/11/18 07:59:10;;;;;;;72.10;40.33;;;;;;;4.57;100.00;93806.13;5052824;28;20122;-78
2021/11/18 08:01:39;;;;;;;63.28;36.38;;;;;;;4.60;100.00;93803.25;5052798;28;20114;-77
2021/11/18 08:04:07;;;;;;;62.88;36.25;;;;;;;4.81;100.00;93802.78;5052622;28;20136;-78
2021/11/18 08:06:35;;;;;;;100.28;51.25;;;;;;;4.97;100.00;93808.84;5052418;28;20099;-78
2021/11/18 08:09:02;;;;;;;76.88;43.17;;;;;;;5.09;100.00;93805.00;5052789;28;20057;-78
2021/11/18 08:11:31;;;;;;;68.90;41.67;;;;;;;5.20;100.00;93807.22;5052408;28;20053;-78
2021/11/18 08:13:59;;;;;;;64.78;39.28;;;;;;;5.29;100.00;93809.75;5052424;28;20058;-78
2021/11/18 08:16:26;;;;;;;63.25;37.20;;;;;;;5.28;100.00;93795.44;5053007;28;20162;-77
2021/11/18 08:18:53;;;;;;;83.88;51.40;;;;;;;5.42;100.00;93806.72;5052336;28;20049;-77
2021/11/18 08:21:20;;;;;;;75.75;43.28;;;;;;;5.63;100.00;93829.13;5052550;28;20087;-77
2021/11/18 08:23:48;;;;;;;78.28;44.85;;;;;;;5.70;100.00;93827.50;5052395;28;20048;-78
2021/11/18 08:26:17;;;;;;;90.28;51.63;;;;;;;5.82;100.00;93820.31;5052339;28;20057;-78
2021/11/18 08:28:45;;;;;;;88.70;47.78;;;;;;;5.88;100.00;93819.63;5052486;28;20059;-78
2021/11/18 08:31:15;;;;;;;73.20;39.63;;;;;;;5.98;100.00;93829.63;5052208;28;20044;-78
2021/11/18 08:33:42;;;;;;;66.68;39.17;;;;;;;6.08;100.00;93826.94;5052106;28;20057;-78
2021/11/18 08:36:09;;;;;;;71.90;39.88;;;;;;;6.18;100.00;93831.00;5052249;28;20045;-77
2021/11/18 08:38:36;;;;;;;67.07;38.13;;;;;;;6.21;100.00;93834.03;5052512;28;20060;-78
2021/11/18 08:41:06;;;;;;;72.78;40.08;;;;;;;6.32;100.00;93842.28;5051980;28;20508;-77
2021/11/18 08:43:36;;;;;;;64.13;35.97;;;;;;;6.26;100.00;93825.88;5051768;28;20052;-77
2021/11/18 08:46:04;;;;;;;52.97;32.60;;;;;;;6.16;100.00;93836.31;5052101;28;20433;-77
2021/11/18 08:48:31;;;;;;;55.58;32.67;;;;;;;6.21;100.00;93843.44;5049446;28;20045;-77
2021/11/18 08:50:59;;;;;;;64.15;37.55;;;;;;;6.07;100.00;93843.16;5049943;28;20048;-78
2021/11/18 08:53:29;;;;;;;60.97;34.45;;;;;;;5.92;100.00;93850.69;5051406;28;20099;-77
2021/11/18 08:55:57;;;;;;;84.32;44.78;;;;;;;5.94;100.00;93847.97;5051848;28;20094;-78
2021/11/18 08:58:28;;;;;;;54.10;31.73;;;;;;;5.87;100.00;93848.66;5051823;28;20135;-78
2021/11/18 09:00:58;;;;;;;54.40;29.70;;;;;;;5.32;100.00;93835.72;5051720;28;20053;-78
2021/11/18 09:03:29;;;;;;;60.08;31.75;;;;;;;5.32;100.00;93833.16;5051764;28;20052;-78
2021/11/18 09:05:57;;;;;;;61.40;32.55;;;;;;;5.49;100.00;93845.88;5057408;28;20088;-78
2021/11/18 09:08:24;;;;;;;58.65;30.30;;;;;;;5.77;100.00;93853.13;5071340;28;20102;-78
2021/11/18 09:10:51;;;;;;;56.60;29.98;;;;;;;5.78;100.00;93831.00;5071337;28;20167;-78
2021/11/18 09:13:19;;;;;;;54.55;28.45;;;;;;;6.02;100.00;93847.97;5071433;28;20052;-78
2021/11/18 09:15:48;;;;;;;50.53;27.60;;;;;;;6.25;100.00;93854.91;5071031;28;20500;-78
2021/11/18 09:18:16;;;;;;;61.92;28.75;;;;;;;6.45;100.00;93854.50;5071114;28;20048;-78
2021/11/18 09:20:45;;;;;;;87.32;36.92;;;;;;;6.39;100.00;93853.41;5070992;28;20048;-78
2021/11/18 09:23:15;;;;;;;70.78;34.28;;;;;;;6.44;100.00;93861.38;5070983;28;20060;-79
2021/11/18 09:25:47;;;;;;;70.75;33.17;;;;;;;6.42;100.00;93863.28;5071255;28;20054;-78
2021/11/18 09:28:15;;;;;;;80.88;36.83;;;;;;;6.22;100.00;93840.75;5070246;28;20055;-78
2021/11/18 09:30:45;;;;;;;69.25;33.80;;;;;;;6.33;100.00;93859.97;5071594;28;20075;-78
2021/11/18 09:33:15;;;;;;;85.90;35.75;;;;;;;6.23;100.00;93862.72;5071461;28;20048;-78
2021/11/18 09:35:44;;;;;;;75.65;35.15;;;;;;;6.11;100.00;93861.50;5071029;28;20570;-78
2021/11/18 09:38:12;;;;;;;77.55;36.97;;;;;;;5.91;100.00;93868.69;5070832;28;20044;-78
2021/11/18 09:40:43;;;;;;;75.65;35.00;;;;;;;5.81;100.00;93861.25;5071220;28;20053;-78
2021/11/18 09:43:39;;;;;;;66.88;33.92;;;;;;;5.76;100.00;93861.75;5071453;28;20053;-78
2021/11/18 09:46:21;;;;;;;69.65;36.83;;;;;;;5.61;100.00;93874.38;5070587;28;20068;-78
2021/11/18 09:49:28;;;;;;;69.97;35.63;;;;;;;5.84;100.00;93863.47;5070554;28;20056;-78
2021/11/18 09:52:18;;;;;;;69.97;35.97;;;;;;;6.05;100.00;93862.97;5070815;28;20053;-78
2021/11/18 09:54:55;;;;;;;63.72;34.80;;;;;;;6.23;100.00;93865.28;5070466;28;20041;-78
2021/11/18 09:57:38;;;;;;;64.45;34.13;;;;;;;6.20;100.00;93841.88;5070716;28;20409;-78
2021/11/18 10:00:13;;;;;;;61.17;32.90;;;;;;;6.35;100.00;93862.38;5070398;28;20052;-78
2021/11/18 10:03:07;;;;;;;65.88;33.67;;;;;;;6.10;100.00;93855.59;5070489;28;20055;-77
2021/11/18 10:05:41;;;;;;;63.05;34.03;;;;;;;5.97;100.00;93855.31;5070513;28;20049;-77
2021/11/18 10:08:12;;;;;;;70.03;36.90;;;;;;;6.10;100.00;93844.59;5070082;28;20057;-79
2021/11/18 10:10:44;;;;;;;65.22;35.45;;;;;;;6.06;100.00;93828.84;5070284;28;20455;-78
2021/11/18 10:13:35;;;;;;;61.97;34.70;;;;;;;6.06;100.00;93844.13;5070126;28;20049;-78
2021/11/18 10:16:05;;;;;;;65.95;36.30;;;;;;;6.06;100.00;93835.72;5056163;28;20055;-77
2021/11/18 10:18:36;;;;;;;62.58;35.70;;;;;;;6.28;100.00;93840.06;5069479;28;20056;-78
2021/11/18 10:21:10;;;;;;;58.95;33.05;;;;;;;6.23;100.00;93810.91;5070173;28;20113;-78
2021/11/18 10:23:38;;;;;;;58.92;34.13;;;;;;;6.58;100.00;93833.53;5070007;28;20082;-78
2021/11/18 10:26:08;;;;;;;67.03;35.75;;;;;;;6.77;100.00;93835.63;5069606;28;20044;-78
2021/11/18 10:28:44;;;;;;;66.63;35.90;;;;;;;6.97;100.00;93832.63;5069551;28;20095;-77
2021/11/18 10:31:17;;;;;;;59.47;35.05;;;;;;;7.17;100.00;93832.16;5069790;28;20052;-78
2021/11/18 10:33:52;;;;;;;61.05;34.15;;;;;;;7.31;100.00;93826.25;5069604;28;20067;-78
2021/11/18 10:36:38;;;;;;;65.07;33.08;;;;;;;7.38;100.00;93825.56;5069851;28;20041;-77
2021/11/18 10:39:15;;;;;;;63.83;32.90;;;;;;;7.56;100.00;93818.38;5069757;28;20094;-78
2021/11/18 10:41:50;;;;;;;40.80;24.90;;;;;;;7.79;100.00;93825.16;5069462;28;20056;-77
2021/11/18 10:44:21;;;;;;;44.53;25.73;;;;;;;7.92;100.00;93819.41;5069645;28;20055;-77
2021/11/18 10:46:56;;;;;;;53.92;29.77;;;;;;;7.97;100.00;93811.22;5069362;28;20056;-78
2021/11/18 10:49:36;;;;;;;58.00;27.85;;;;;;;8.21;100.00;93807.56;5069322;28;20048;-77
2021/11/18 10:52:06;;;;;;;43.33;23.33;;;;;;;8.45;100.00;93808.19;5069404;28;20040;-78
2021/11/18 10:54:43;;;;;;;38.05;22.75;;;;;;;8.18;98.71;93768.75;5069540;28;20079;-77
2021/11/18 10:57:16;;;;;;;45.17;24.92;;;;;;;8.11;99.89;93814.72;5069756;28;20109;-77
2021/11/18 10:59:44;;;;;;;44.78;25.08;;;;;;;7.94;100.00;93793.66;5069015;28;20492;-77
2021/11/18 11:02:24;;;;;;;46.92;25.23;;;;;;;8.32;100.00;93805.50;5069419;28;20064;-78
2021/11/18 11:04:54;;;;;;;37.83;22.63;;;;;;;8.14;98.89;93804.91;5069471;28;20129;-77
2021/11/18 11:07:35;;;;;;;39.22;22.48;;;;;;;8.27;99.92;93800.91;5069518;28;20041;-78
2021/11/18 11:10:02;;;;;;;39.60;23.90;;;;;;;8.52;98.65;93796.28;5069661;28;20416;-78
2021/11/18 11:12:31;;;;;;;41.38;24.45;;;;;;;8.73;97.38;93796.47;5069235;28;20045;-78
2021/11/18 11:15:13;;;;;;;41.35;22.38;;;;;;;8.52;96.28;93768.13;5069587;28;20055;-78
2021/11/18 11:18:05;;;;;;;49.70;26.50;;;;;;;8.60;95.91;93797.16;5069193;28;20060;-78
2021/11/18 11:20:44;;;;;;;34.95;21.15;;;;;;;8.43;96.22;93782.00;5069214;28;20474;-78
2021/11/18 11:23:21;;;;;;;39.33;23.10;;;;;;;8.71;96.77;93801.78;5064457;28;20056;-78
2021/11/18 11:26:18;;;;;;;35.40;21.73;;;;;;;8.13;95.72;93787.19;5067930;28;20048;-78